Time;durP1;ratioP1;P1;durP2;ratioP2;P2;SDS_P1;SDS_P2;PMS_P1;PMS_P2;Temp;Humidity;BMP_temperature;BMP_pressure;BME280_temperature;BME280_humidity;BME280_pressure;Samples;Min_cycle;Max_cycle;Signal;HPM_P1;HPM_P2
2022/05/07 00:00:22;;;;;;;2.60;1.63;;;;;;;16.39;46.51;100807.16;10369916;28;20049;-62
2022/05/07 00:05:24;;;;;;;2.30;1.75;;;;;;;16.34;46.64;100803.22;10369930;28;20057;-61
2022/05/07 00:10:25;;;;;;;2.50;1.52;;;;;;;16.23;46.58;100783.59;10368069;28;20057;-62
2022/05/07 00:15:27;;;;;;;3.38;1.67;;;;;;;16.25;47.21;100795.03;10371939;28;20049;-61
2022/05/07 00:20:30;;;;;;;2.65;1.70;;;;;;;16.21;47.32;100793.66;10384858;28;20076;-62
2022/05/07 00:25:32;;;;;;;3.58;1.95;;;;;;;16.08;47.26;100764.44;10377438;28;20175;-61
2022/05/07 00:30:34;;;;;;;2.80;1.73;;;;;;;16.15;47.94;100772.72;10376969;28;20053;-61
2022/05/07 00:35:35;;;;;;;2.55;2.00;;;;;;;16.16;48.28;100793.22;10376328;28;20057;-62
2022/05/07 00:40:36;;;;;;;2.33;1.60;;;;;;;16.10;48.81;100788.44;10377543;28;20059;-61
2022/05/07 00:45:38;;;;;;;2.55;1.92;;;;;;;15.98;48.89;100790.47;10379195;28;20579;-62
2022/05/07 00:56:00;;;;;;;2.85;2.00;;;;;;;15.87;48.02;100787.97;10375957;28;20381;-61
2022/05/07 01:01:02;;;;;;;3.70;1.55;;;;;;;15.80;47.71;100790.34;10379585;28;20084;-62
2022/05/07 01:06:03;;;;;;;2.53;1.90;;;;;;;15.74;48.03;100790.91;10381970;28;20045;-63
2022/05/07 01:11:04;;;;;;;3.63;1.80;;;;;;;15.68;48.20;100794.16;10381386;28;20140;-62
2022/05/07 01:16:06;;;;;;;2.63;1.40;;;;;;;15.48;48.47;100762.00;10374125;28;20180;-63
2022/05/07 01:21:12;;;;;;;4.22;2.28;;;;;;;15.53;48.51;100780.34;10373265;28;20128;-62
2022/05/07 01:26:16;;;;;;;2.65;2.22;;;;;;;15.51;48.65;100785.84;10369945;28;20054;-63
2022/05/07 01:31:18;;;;;;;3.47;1.88;;;;;;;15.36;48.78;100769.34;10370479;28;20060;-62
2022/05/07 01:36:20;;;;;;;2.33;2.10;;;;;;;15.34;49.42;100765.97;10373517;28;20140;-62
2022/05/07 01:41:21;;;;;;;5.63;2.00;;;;;;;15.36;49.35;100785.44;10371768;28;20128;-62
2022/05/07 01:51:43;;;;;;;3.63;2.13;;;;;;;15.13;49.97;100779.53;10372525;28;20116;-63
2022/05/07 01:56:44;;;;;;;3.42;2.17;;;;;;;15.10;49.48;100779.81;10371592;28;20922;-63
2022/05/07 02:01:45;;;;;;;3.03;2.20;;;;;;;15.01;50.16;100769.91;10371520;28;20131;-63
2022/05/07 02:06:47;;;;;;;3.53;2.10;;;;;;;15.01;50.07;100781.50;10373004;28;20107;-60
2022/05/07 02:11:48;;;;;;;2.88;2.10;;;;;;;15.05;50.15;100781.22;10370929;28;20373;-63
2022/05/07 02:16:50;;;;;;;3.35;2.35;;;;;;;15.01;50.31;100772.56;10373742;28;20060;-61
2022/05/07 02:21:51;;;;;;;5.60;2.30;;;;;;;14.95;50.05;100781.19;10371834;28;20053;-62
2022/05/07 02:26:53;;;;;;;2.53;2.33;;;;;;;14.77;50.42;100757.75;10371419;28;20053;-62
2022/05/07 02:32:03;;;;;;;5.47;2.72;;;;;;;14.76;51.31;100773.97;10370406;28;20786;-62
2022/05/07 02:37:05;;;;;;;5.03;2.63;;;;;;;14.72;51.70;100776.06;10373132;28;20186;-61
2022/05/07 02:47:27;;;;;;;2.63;2.40;;;;;;;14.54;52.16;100756.25;10372143;28;20049;-62
2022/05/07 02:52:28;;;;;;;3.38;2.60;;;;;;;14.56;52.92;100778.38;10371510;28;20053;-61
2022/05/07 02:57:29;;;;;;;6.07;3.03;;;;;;;14.39;53.24;100766.50;10371232;28;22749;-62
2022/05/07 03:02:31;;;;;;;4.20;2.95;;;;;;;14.42;53.80;100777.78;10370123;28;20053;-61
2022/05/07 03:07:33;;;;;;;3.40;2.67;;;;;;;14.41;53.66;100778.78;10370956;28;20054;-62
2022/05/07 03:12:35;;;;;;;4.00;2.65;;;;;;;14.32;54.24;100774.22;10370117;28;20768;-60
2022/05/07 03:17:36;;;;;;;3.83;3.53;;;;;;;14.26;54.48;100772.06;10368365;28;20488;-61
2022/05/07 03:22:41;;;;;;;5.25;2.90;;;;;;;14.18;54.57;100779.94;10369431;28;20060;-62
2022/05/07 03:27:43;;;;;;;5.88;3.42;;;;;;;14.06;55.36;100766.63;10370349;28;20672;-62
2022/05/07 03:32:44;;;;;;;3.28;2.95;;;;;;;14.06;55.09;100779.19;10368797;28;20108;-62
2022/05/07 03:37:45;;;;;;;4.53;3.10;;;;;;;14.03;55.57;100776.78;10367935;28;20136;-62
2022/05/07 03:42:47;;;;;;;6.35;4.53;;;;;;;14.03;55.83;100774.09;10369894;28;20061;-61
2022/05/07 03:47:48;;;;;;;6.47;4.07;;;;;;;13.84;56.01;100773.03;10369279;28;20037;-62
2022/05/07 03:58:17;;;;;;;5.07;4.13;;;;;;;13.67;57.45;100782.47;10368746;28;20124;-62
2022/05/07 04:03:18;;;;;;;5.40;3.85;;;;;;;13.65;58.70;100781.78;10369017;28;20052;-63
2022/05/07 04:08:20;;;;;;;4.60;4.07;;;;;;;13.42;57.90;100748.94;10367449;28;20053;-61
2022/05/07 04:13:22;;;;;;;4.90;3.88;;;;;;;13.57;57.95;100778.88;10367371;28;20045;-61
2022/05/07 04:18:23;;;;;;;5.38;3.20;;;;;;;13.41;58.10;100761.47;10368463;28;20428;-60
2022/05/07 04:23:24;;;;;;;4.32;3.80;;;;;;;13.50;57.91;100788.44;10367612;28;20132;-61
2022/05/07 04:28:26;;;;;;;4.00;3.60;;;;;;;13.50;58.39;100797.28;10365833;28;20666;-61
2022/05/07 04:33:27;;;;;;;3.75;3.03;;;;;;;13.51;58.58;100803.47;10366951;28;20133;-63
2022/05/07 04:38:29;;;;;;;4.68;3.40;;;;;;;13.57;58.63;100794.94;10366239;28;20407;-61
2022/05/07 04:43:31;;;;;;;6.18;4.03;;;;;;;13.48;58.41;100790.38;10368606;28;20509;-63
2022/05/07 04:48:32;;;;;;;7.25;3.85;;;;;;;13.54;58.49;100796.06;10369349;28;20479;-61
2022/05/07 04:53:33;;;;;;;3.90;3.17;;;;;;;13.65;58.04;100808.53;10369150;28;20057;-62
2022/05/07 04:58:35;;;;;;;5.82;3.60;;;;;;;13.65;57.90;100805.00;10377308;28;20145;-61
2022/05/07 05:03:36;;;;;;;5.00;3.10;;;;;;;13.53;58.08;100783.66;10388404;28;20073;-62
2022/05/07 05:08:38;;;;;;;4.13;3.58;;;;;;;13.69;57.66;100806.44;10374243;28;20136;-62
2022/05/07 05:13:39;;;;;;;5.00;3.67;;;;;;;13.70;57.50;100817.00;10375501;28;20571;-63
2022/05/07 05:18:41;;;;;;;5.00;3.67;;;;;;;13.66;58.09;100801.34;10370987;28;20141;-63
2022/05/07 05:23:42;;;;;;;4.45;3.33;;;;;;;13.81;57.24;100817.91;10373033;28;20049;-62
2022/05/07 05:28:45;;;;;;;4.63;3.53;;;;;;;13.90;57.50;100819.81;10374700;28;20057;-63
2022/05/07 05:33:47;;;;;;;6.40;4.27;;;;;;;14.03;57.40;100819.59;10372401;28;20684;-62
2022/05/07 05:38:49;;;;;;;6.20;3.17;;;;;;;14.08;56.53;100820.91;10371495;28;20053;-63
2022/05/07 05:43:50;;;;;;;4.10;2.95;;;;;;;14.05;57.18;100818.50;10373161;28;20060;-63
2022/05/07 05:48:52;;;;;;;6.35;3.13;;;;;;;14.08;57.38;100818.25;10372851;28;20059;-62
2022/05/07 05:53:53;;;;;;;3.95;2.83;;;;;;;14.27;55.82;100835.38;10377933;28;20657;-62
2022/05/07 05:58:55;;;;;;;4.18;2.53;;;;;;;14.26;56.15;100833.66;10374202;28;20055;-62
2022/05/07 06:03:57;;;;;;;3.42;2.38;;;;;;;14.31;55.89;100826.09;10374280;28;20056;-62
2022/05/07 06:08:58;;;;;;;4.55;2.47;;;;;;;14.47;55.52;100831.81;10369489;28;20049;-62
2022/05/07 06:14:00;;;;;;;4.05;2.42;;;;;;;14.69;55.39;100835.28;10370053;28;20045;-62
2022/05/07 06:19:01;;;;;;;4.88;3.00;;;;;;;14.85;54.16;100840.16;10369826;28;20054;-61
2022/05/07 06:29:23;;;;;;;3.17;2.67;;;;;;;14.98;54.19;100813.06;10369938;28;20060;-64
2022/05/07 06:34:24;;;;;;;2.40;2.20;;;;;;;15.22;53.67;100827.94;10367659;28;20056;-65
2022/05/07 06:39:26;;;;;;;3.45;2.10;;;;;;;15.38;53.31;100839.78;10371180;28;20136;-64
2022/05/07 06:44:27;;;;;;;5.97;2.10;;;;;;;15.60;53.20;100839.63;10370744;28;20061;-63
2022/05/07 06:49:29;;;;;;;4.25;2.42;;;;;;;15.76;53.70;100831.84;10368820;28;20038;-62
2022/05/07 06:54:30;;;;;;;2.70;2.20;;;;;;;15.97;52.75;100838.94;10369545;28;20053;-62
2022/05/07 06:59:31;;;;;;;2.72;2.20;;;;;;;16.12;52.17;100836.63;10369109;28;20045;-62
2022/05/07 07:04:33;;;;;;;3.25;2.88;;;;;;;16.17;52.10;100837.91;10371803;28;20056;-62
2022/05/07 07:09:34;;;;;;;6.95;2.88;;;;;;;16.15;51.96;100815.69;10369463;28;20792;-61
2022/05/07 07:14:36;;;;;;;3.30;1.98;;;;;;;16.48;51.49;100845.69;10368781;28;20041;-62
2022/05/07 07:19:40;;;;;;;4.35;2.70;;;;;;;16.68;51.24;100840.22;10375697;28;20217;-61
2022/05/07 07:24:41;;;;;;;3.35;3.05;;;;;;;16.83;51.14;100822.63;10374114;28;20147;-59
2022/05/07 07:29:47;;;;;;;4.63;2.45;;;;;;;17.13;50.05;100839.47;10367927;28;20501;-62
2022/05/07 07:34:48;;;;;;;5.30;2.50;;;;;;;17.18;49.57;100839.84;10368436;28;20052;-63
2022/05/07 07:39:50;;;;;;;3.17;1.85;;;;;;;17.42;49.38;100833.84;10367641;28;20052;-62
2022/05/07 07:47:56;;;;;;;2.35;2.10;;;;;;;17.56;49.34;100828.91;10368768;28;20065;-63
2022/05/07 07:50:12;;;;;;;2.67;2.00;;;;;;;17.63;48.94;100841.59;10367496;28;20041;-61
2022/05/07 07:55:14;;;;;;;4.32;2.30;;;;;;;17.83;48.79;100830.66;10368428;28;20081;-62
2022/05/07 08:00:16;;;;;;;3.88;2.63;;;;;;;17.99;47.84;100817.31;10368654;28;20435;-63
2022/05/07 08:05:20;;;;;;;4.18;2.25;;;;;;;18.27;48.59;100824.38;10374985;28;20159;-67
2022/05/07 08:15:42;;;;;;;3.30;2.00;;;;;;;18.95;46.62;100830.78;10366586;28;20045;-62
2022/05/07 08:20:44;;;;;;;3.50;2.30;;;;;;;19.04;45.84;100817.16;10367336;28;20037;-61
2022/05/07 08:25:45;;;;;;;3.25;2.15;;;;;;;19.31;45.68;100825.13;10364409;28;20049;-62
2022/05/07 08:30:49;;;;;;;3.70;2.17;;;;;;;19.66;43.99;100813.16;10367788;28;20056;-62
2022/05/07 08:35:50;;;;;;;3.10;2.17;;;;;;;19.80;44.07;100830.56;10365803;28;20080;-61
2022/05/07 08:40:51;;;;;;;2.90;2.08;;;;;;;20.17;43.21;100825.63;10373188;28;20053;-61
2022/05/07 08:45:53;;;;;;;4.03;2.45;;;;;;;20.25;42.22;100812.06;10375084;28;20136;-62
2022/05/07 08:50:56;;;;;;;3.28;2.10;;;;;;;20.63;41.19;100815.00;10374731;28;20115;-63
2022/05/07 08:55:57;;;;;;;3.57;2.00;;;;;;;20.86;41.46;100817.78;10375059;28;20687;-62
2022/05/07 09:01:00;;;;;;;2.67;2.00;;;;;;;20.87;41.13;100818.59;10373747;28;20830;-61
2022/05/07 09:06:01;;;;;;;4.45;1.85;;;;;;;21.31;40.18;100813.41;10370654;28;20547;-62
2022/05/07 09:11:02;;;;;;;1.75;1.52;;;;;;;21.53;39.59;100811.75;10374862;28;20068;-62
2022/05/07 09:16:06;;;;;;;3.22;1.80;;;;;;;21.71;38.92;100814.16;10374507;28;20050;-63
2022/05/07 09:21:26;;;;;;;3.55;1.27;;;;;;;21.98;38.65;100808.28;10372040;28;20118;-62
2022/05/07 09:26:40;;;;;;;4.53;2.13;;;;;;;22.35;37.46;100806.56;10372947;28;20107;-62
2022/05/07 09:31:43;;;;;;;3.25;1.40;;;;;;;22.85;35.89;100804.94;10362458;28;20057;-62
2022/05/07 09:36:45;;;;;;;1.20;1.00;;;;;;;22.92;35.77;100800.44;10372010;28;20080;-62
2022/05/07 09:41:52;;;;;;;8.30;1.63;;;;;;;23.49;33.25;100789.72;10379805;28;20108;-61
2022/05/07 09:46:55;;;;;;;1.75;1.00;;;;;;;23.83;33.51;100779.97;10373699;28;20063;-61
2022/05/07 09:51:57;;;;;;;1.73;0.95;;;;;;;24.16;31.50;100784.81;10368610;28;20629;-61
2022/05/07 10:02:47;;;;;;;1.60;1.25;;;;;;;24.97;28.03;100791.47;10376021;28;20061;-63
2022/05/07 10:08:27;;;;;;;1.63;0.75;;;;;;;24.91;28.20;100784.13;10368943;28;20041;-62
2022/05/07 10:13:29;;;;;;;2.90;0.75;;;;;;;25.50;27.83;100777.09;10368457;28;20132;-62
2022/05/07 10:18:35;;;;;;;1.80;1.20;;;;;;;25.83;26.34;100773.50;10370752;28;20083;-62
2022/05/07 10:23:38;;;;;;;1.42;0.77;;;;;;;26.50;25.13;100768.75;10371765;28;20041;-62
2022/05/07 10:28:42;;;;;;;3.17;0.98;;;;;;;26.73;25.28;100757.31;10360104;28;20061;-62
2022/05/07 10:33:44;;;;;;;2.60;0.60;;;;;;;27.54;24.81;100760.34;10370647;28;20053;-62
2022/05/07 10:38:49;;;;;;;2.10;1.20;;;;;;;27.96;22.89;100751.53;10370776;28;20053;-62
2022/05/07 10:44:03;;;;;;;2.03;1.40;;;;;;;28.16;23.41;100757.63;10369206;28;20041;-62
2022/05/07 10:49:05;;;;;;;3.13;0.88;;;;;;;28.05;23.60;100761.16;10365045;28;20049;-62
2022/05/07 10:54:36;;;;;;;3.83;1.73;;;;;;;28.10;23.53;100744.88;10369397;28;20393;-62
2022/05/07 10:59:37;;;;;;;2.53;1.90;;;;;;;28.57;24.92;100756.09;10349845;28;20125;-62
2022/05/07 11:04:43;;;;;;;2.33;1.20;;;;;;;27.91;24.62;100737.69;10369390;28;20056;-62
2022/05/07 11:09:49;;;;;;;3.45;1.30;;;;;;;28.57;24.04;100745.13;10369447;28;20148;-63
2022/05/07 11:14:52;;;;;;;3.33;1.35;;;;;;;28.95;23.45;100740.44;10369924;28;20203;-62
2022/05/07 11:19:54;;;;;;;2.85;1.17;;;;;;;28.81;23.69;100698.72;10367941;28;20041;-62
2022/05/07 11:25:03;;;;;;;1.88;1.08;;;;;;;29.20;23.51;100732.03;10369227;28;20511;-62
2022/05/07 11:30:05;;;;;;;3.35;1.83;;;;;;;28.72;25.28;100722.03;10369210;28;20049;-62
2022/05/07 11:35:07;;;;;;;3.00;0.93;;;;;;;29.16;23.73;100714.38;10368171;28;20156;-61
2022/05/07 11:40:10;;;;;;;3.05;1.40;;;;;;;29.24;22.81;100708.56;10369040;28;20128;-62
2022/05/07 11:45:33;;;;;;;2.80;1.48;;;;;;;29.40;22.72;100708.97;10369934;28;20052;-62
2022/05/07 11:50:40;;;;;;;1.80;1.00;;;;;;;29.24;22.60;100705.00;10370283;28;20100;-61
2022/05/07 11:55:43;;;;;;;3.38;1.20;;;;;;;29.03;23.66;100714.59;10373924;28;20061;-61
2022/05/07 12:00:46;;;;;;;1.67;1.08;;;;;;;28.84;23.53;100700.97;10381663;28;20084;-62
2022/05/07 12:05:49;;;;;;;3.28;1.05;;;;;;;28.17;23.86;100696.38;10376133;28;20045;-62
2022/05/07 12:10:53;;;;;;;1.42;0.90;;;;;;;28.15;23.97;100698.50;10384717;28;20142;-61
2022/05/07 12:29:48;;;;;;;2.42;1.40;;;;;;;28.41;23.21;100680.06;10374878;28;20048;-60
2022/05/07 12:32:01;;;;;;;3.13;1.02;;;;;;;27.83;24.82;100673.19;10373614;28;20059;-61
2022/05/07 12:37:04;;;;;;;1.75;0.88;;;;;;;27.91;24.83;100677.50;10374939;28;20132;-63
2022/05/07 12:42:08;;;;;;;3.70;0.87;;;;;;;27.97;25.13;100665.69;10376167;28;20064;-61
2022/05/07 12:47:09;;;;;;;1.83;0.75;;;;;;;27.92;25.16;100670.97;10374962;28;20168;-62
2022/05/07 12:52:11;;;;;;;1.95;1.20;;;;;;;26.95;25.58;100661.41;10373107;28;20081;-63
2022/05/07 12:57:12;;;;;;;1.83;0.80;;;;;;;27.42;25.90;100655.53;10373774;28;20095;-63
2022/05/07 13:02:14;;;;;;;3.10;1.27;;;;;;;27.59;25.16;100645.66;10374916;28;20124;-62
2022/05/07 13:07:15;;;;;;;1.90;0.85;;;;;;;27.55;25.77;100643.63;10373248;28;20136;-62
2022/05/07 13:12:18;;;;;;;2.97;0.98;;;;;;;27.25;25.83;100633.38;10373788;28;20053;-61
2022/05/07 13:17:27;;;;;;;2.47;1.00;;;;;;;26.64;26.64;100641.19;10372651;28;20756;-60
2022/05/07 13:22:28;;;;;;;1.43;1.00;;;;;;;26.58;26.91;100622.97;10374530;28;20128;-61
2022/05/07 13:27:31;;;;;;;1.90;0.75;;;;;;;26.81;26.44;100631.44;10376293;28;20075;-61
2022/05/07 13:32:32;;;;;;;1.95;0.93;;;;;;;26.61;26.71;100622.53;10372691;28;20573;-59
2022/05/07 13:37:33;;;;;;;2.50;1.00;;;;;;;26.39;26.04;100598.34;10372770;28;20064;-62
2022/05/07 13:42:37;;;;;;;1.50;0.85;;;;;;;26.21;26.97;100584.56;10370203;28;20053;-62
2022/05/07 13:47:40;;;;;;;2.15;1.02;;;;;;;26.48;26.63;100595.31;10372501;28;20196;-62
2022/05/07 13:52:44;;;;;;;2.60;1.13;;;;;;;26.45;26.49;100597.44;10372043;28;20592;-62
2022/05/07 13:57:46;;;;;;;1.08;0.98;;;;;;;26.32;27.24;100611.19;10373160;28;20056;-62
2022/05/07 14:02:48;;;;;;;3.00;2.15;;;;;;;25.89;27.71;100593.50;10371562;28;20045;-62
2022/05/07 14:07:49;;;;;;;2.58;0.90;;;;;;;25.70;28.05;100603.47;10372064;28;20067;-62
2022/05/07 14:12:50;;;;;;;2.10;1.33;;;;;;;25.70;27.96;100598.00;10371109;28;20163;-62
2022/05/07 14:17:52;;;;;;;3.03;2.05;;;;;;;25.56;27.95;100580.03;10371660;28;20493;-62
2022/05/07 14:22:53;;;;;;;2.58;1.35;;;;;;;25.66;27.94;100591.31;10381977;28;20045;-61
2022/05/07 14:27:55;;;;;;;2.28;1.45;;;;;;;25.81;27.84;100590.22;10371989;28;20053;-65
2022/05/07 14:32:57;;;;;;;1.00;0.80;;;;;;;25.72;28.63;100579.53;10370766;28;20140;-62
2022/05/07 14:37:58;;;;;;;1.90;1.23;;;;;;;25.56;28.94;100577.28;10369341;28;20041;-61
2022/05/07 14:43:01;;;;;;;3.13;0.95;;;;;;;25.40;28.49;100582.16;10371337;28;20423;-61
2022/05/07 14:48:03;;;;;;;;;;;;;;;25.23;28.53;100570.00;10373422;28;20128;-61
2022/05/07 14:53:04;;;;;;;2.35;1.00;;;;;;;25.24;28.88;100580.69;10367293;28;19925;-61
2022/05/07 14:58:06;;;;;;;1.08;0.98;;;;;;;25.24;28.63;100568.97;10372162;28;20049;-62
2022/05/07 15:03:08;;;;;;;2.80;1.17;;;;;;;25.16;28.90;100570.03;10375919;28;20073;-62
2022/05/07 15:13:30;;;;;;;5.30;1.63;;;;;;;25.01;29.55;100563.97;10370517;28;20049;-61
2022/05/07 15:18:31;;;;;;;2.22;1.40;;;;;;;24.84;29.05;100558.13;10368745;28;20049;-64
2022/05/07 15:23:41;;;;;;;1.40;0.82;;;;;;;24.77;29.38;100546.41;10370140;28;20061;-62
2022/05/07 15:28:43;;;;;;;2.13;1.63;;;;;;;24.63;29.81;100559.19;10368808;28;20132;-62
2022/05/07 15:39:04;;;;;;;2.50;1.48;;;;;;;24.31;30.10;100543.41;10370473;28;20037;-61
2022/05/07 15:44:05;;;;;;;2.20;0.95;;;;;;;24.34;30.14;100551.16;10373939;28;20088;-62
2022/05/07 15:49:08;;;;;;;2.63;1.33;;;;;;;24.22;30.31;100543.84;10383374;28;20045;-62
2022/05/07 15:54:16;;;;;;;4.75;1.60;;;;;;;24.16;31.03;100538.16;10373044;28;20049;-62
2022/05/07 15:59:17;;;;;;;1.40;1.00;;;;;;;24.04;30.68;100517.25;10370493;28;20076;-62
2022/05/07 16:04:18;;;;;;;2.28;1.40;;;;;;;24.08;30.89;100535.66;10367542;28;20049;-63
2022/05/07 16:09:20;;;;;;;1.50;1.20;;;;;;;23.95;30.59;100519.31;10366644;28;20042;-62
2022/05/07 16:14:21;;;;;;;2.42;1.40;;;;;;;23.98;30.98;100533.31;10369422;28;20156;-62
2022/05/07 16:19:23;;;;;;;2.28;1.25;;;;;;;23.89;31.31;100534.53;10367888;28;20053;-62
2022/05/07 16:29:45;;;;;;;2.15;1.27;;;;;;;23.63;31.23;100503.50;10366267;28;20148;-62
2022/05/07 16:34:47;;;;;;;1.67;1.57;;;;;;;23.64;31.42;100501.59;10367314;28;20065;-62
2022/05/07 16:39:48;;;;;;;2.58;1.38;;;;;;;23.57;31.60;100509.75;10365359;28;20053;-62
2022/05/07 16:44:50;;;;;;;4.18;1.58;;;;;;;23.56;31.77;100518.94;10374804;28;20093;-61
2022/05/07 16:49:51;;;;;;;3.15;1.75;;;;;;;23.31;32.12;100524.03;10374386;28;20352;-61
2022/05/07 16:54:55;;;;;;;3.13;1.70;;;;;;;23.25;32.66;100516.69;10367987;28;21277;-61
2022/05/07 16:59:57;;;;;;;3.10;1.55;;;;;;;23.27;32.61;100512.75;10369644;28;20053;-63
2022/05/07 17:04:59;;;;;;;2.90;1.20;;;;;;;23.29;32.57;100513.38;10373692;28;20124;-62
2022/05/07 17:10:01;;;;;;;1.80;1.58;;;;;;;23.18;33.12;100526.66;10372974;28;20057;-63
2022/05/07 17:15:05;;;;;;;3.28;1.85;;;;;;;23.06;34.17;100529.91;10374877;28;20528;-62
2022/05/07 17:20:09;;;;;;;3.60;2.25;;;;;;;22.99;34.41;100533.63;10372012;28;20053;-62
2022/05/07 17:25:11;;;;;;;3.85;2.35;;;;;;;22.84;33.94;100526.41;10375151;28;20077;-61
2022/05/07 17:30:13;;;;;;;3.22;2.20;;;;;;;22.82;33.90;100530.34;10374843;28;22131;-61
2022/05/07 17:35:14;;;;;;;5.03;2.45;;;;;;;22.75;33.89;100543.88;10374385;28;20051;-62
2022/05/07 17:40:16;;;;;;;3.00;2.15;;;;;;;22.50;34.04;100540.75;10373787;28;20061;-60
2022/05/07 17:45:19;;;;;;;3.33;2.20;;;;;;;22.38;34.53;100549.44;10373003;28;20393;-61
2022/05/07 17:50:20;;;;;;;3.28;2.03;;;;;;;22.15;35.13;100554.97;10373564;28;20060;-62
2022/05/07 17:55:23;;;;;;;2.83;1.80;;;;;;;22.02;35.48;100552.13;10373950;28;20798;-61
2022/05/07 18:00:26;;;;;;;3.83;1.65;;;;;;;21.97;35.66;100560.84;10378190;28;20049;-62
2022/05/07 18:05:30;;;;;;;2.50;2.00;;;;;;;21.87;35.78;100555.72;10382738;28;20077;-61
2022/05/07 18:10:31;;;;;;;3.30;2.42;;;;;;;21.70;35.86;100565.94;10378287;28;20180;-62
2022/05/07 18:15:33;;;;;;;2.83;1.95;;;;;;;21.62;36.43;100568.75;10373061;28;20057;-65
2022/05/07 18:20:35;;;;;;;2.10;1.90;;;;;;;21.43;37.01;100578.25;10367825;28;20072;-62
2022/05/07 18:25:36;;;;;;;2.92;1.60;;;;;;;21.45;37.55;100576.22;10372496;28;20124;-61
2022/05/07 18:30:38;;;;;;;3.17;1.77;;;;;;;21.39;38.23;100587.75;10371960;28;20052;-62
2022/05/07 18:35:40;;;;;;;2.53;1.77;;;;;;;21.32;38.06;100587.69;10372875;28;20068;-63
2022/05/07 18:46:01;;;;;;;4.20;1.90;;;;;;;21.25;39.17;100602.97;10374662;28;20069;-62
2022/05/07 18:51:03;;;;;;;3.40;2.30;;;;;;;21.16;39.59;100604.94;10371863;28;20119;-63
2022/05/07 19:01:32;;;;;;;4.75;2.25;;;;;;;20.52;41.25;100601.75;10370227;28;20055;-63
2022/05/07 19:06:33;;;;;;;3.67;2.50;;;;;;;20.65;42.29;100618.22;10371334;28;20049;-63
2022/05/07 19:11:35;;;;;;;2.13;1.85;;;;;;;20.63;42.45;100615.69;10383081;28;20453;-64
2022/05/07 19:16:37;;;;;;;4.85;2.53;;;;;;;20.55;42.18;100617.59;10371006;28;20156;-63
2022/05/07 19:21:40;;;;;;;3.28;2.97;;;;;;;20.44;43.33;100622.41;10369318;28;20057;-61
2022/05/07 19:26:43;;;;;;;2.90;2.65;;;;;;;20.33;42.56;100630.06;10373288;28;20143;-62
2022/05/07 19:31:45;;;;;;;3.70;2.50;;;;;;;20.20;43.12;100625.28;10369314;28;20140;-62
2022/05/07 19:36:47;;;;;;;3.60;3.10;;;;;;;19.92;44.62;100631.13;10371152;28;20053;-62
2022/05/07 19:41:48;;;;;;;3.63;2.65;;;;;;;19.94;44.29;100634.53;10370317;28;20068;-62
2022/05/07 19:47:07;;;;;;;3.45;3.15;;;;;;;19.77;43.78;100648.09;10369522;28;20045;-64
2022/05/07 19:52:09;;;;;;;3.60;2.97;;;;;;;19.74;44.86;100652.94;10371355;28;20049;-62
2022/05/07 19:57:12;;;;;;;3.20;2.95;;;;;;;19.61;44.18;100658.91;10369978;28;20045;-63
2022/05/07 20:02:14;;;;;;;3.07;2.77;;;;;;;19.58;44.52;100659.25;10369612;28;20566;-62
2022/05/07 20:07:16;;;;;;;3.33;3.03;;;;;;;19.38;44.60;100654.25;10370290;28;20054;-63
2022/05/07 20:12:20;;;;;;;3.50;3.17;;;;;;;19.32;44.51;100660.31;10369506;28;20133;-62
2022/05/07 20:17:21;;;;;;;3.88;2.58;;;;;;;19.30;45.53;100672.28;10369746;28;20690;-65
2022/05/07 20:22:23;;;;;;;4.38;2.80;;;;;;;19.33;45.59;100683.59;10368609;28;20123;-63
2022/05/07 20:27:25;;;;;;;4.55;3.10;;;;;;;19.33;45.14;100694.38;10369526;28;20045;-62
2022/05/07 20:32:26;;;;;;;4.05;3.65;;;;;;;19.02;45.29;100673.50;10369496;28;20810;-62
2022/05/07 20:37:28;;;;;;;4.82;3.75;;;;;;;19.07;45.49;100690.00;10376350;28;20136;-64
2022/05/07 20:42:29;;;;;;;4.35;3.95;;;;;;;19.10;45.38;100698.78;10376661;28;20055;-62
2022/05/07 20:47:30;;;;;;;4.47;4.07;;;;;;;19.08;45.27;100707.91;10369393;28;20085;-60
2022/05/07 20:52:32;;;;;;;4.13;3.83;;;;;;;19.03;45.63;100698.59;10372214;28;20047;-62
2022/05/07 20:57:33;;;;;;;4.55;3.45;;;;;;;18.95;45.49;100702.16;10377910;28;20051;-62
2022/05/07 21:02:36;;;;;;;5.20;3.33;;;;;;;18.84;46.13;100715.91;10375363;28;20052;-61
2022/05/07 21:07:37;;;;;;;4.35;3.95;;;;;;;18.60;47.01;100711.31;10374772;28;20041;-62
2022/05/07 21:12:39;;;;;;;5.00;4.18;;;;;;;18.40;46.83;100694.59;10373929;28;20710;-62
2022/05/07 21:17:41;;;;;;;5.03;3.45;;;;;;;18.46;47.24;100702.03;10372740;28;20049;-62
2022/05/07 21:22:42;;;;;;;4.07;3.67;;;;;;;18.43;48.03;100705.88;10373488;28;20682;-61
2022/05/07 21:27:43;;;;;;;5.10;4.68;;;;;;;18.10;47.58;100702.25;10373621;28;20492;-63
2022/05/07 21:32:45;;;;;;;4.18;3.78;;;;;;;18.01;48.34;100726.47;10385869;28;20126;-62
2022/05/07 21:37:46;;;;;;;3.95;3.50;;;;;;;18.02;47.87;100728.13;10375000;28;20583;-62
2022/05/07 21:42:48;;;;;;;4.10;3.78;;;;;;;17.94;48.47;100736.19;10375071;28;20621;-62
2022/05/07 21:47:50;;;;;;;3.92;3.63;;;;;;;17.89;48.53;100743.88;10373772;28;20138;-62
2022/05/07 21:52:52;;;;;;;4.28;3.88;;;;;;;17.90;48.59;100728.56;10378637;28;20507;-62
2022/05/07 21:57:56;;;;;;;4.57;4.10;;;;;;;17.75;49.10;100714.81;10380088;28;20593;-62
2022/05/07 22:02:58;;;;;;;5.13;3.72;;;;;;;17.79;48.87;100738.59;10379168;28;20049;-61
2022/05/07 22:07:59;;;;;;;5.07;4.05;;;;;;;17.71;49.18;100735.81;10375719;28;20060;-62
2022/05/07 22:13:01;;;;;;;5.13;4.30;;;;;;;17.67;49.84;100727.22;10373621;28;20129;-62
2022/05/07 22:18:02;;;;;;;4.75;4.35;;;;;;;17.51;50.99;100737.88;10373493;28;20168;-63
2022/05/07 22:23:04;;;;;;;5.22;4.82;;;;;;;17.34;51.06;100714.53;10366356;28;20053;-62
2022/05/07 22:28:07;;;;;;;5.85;5.35;;;;;;;17.39;51.18;100749.91;10371361;28;20086;-63
2022/05/07 22:33:08;;;;;;;6.00;5.40;;;;;;;17.15;51.71;100713.72;10359430;28;20049;-61
2022/05/07 22:38:10;;;;;;;5.45;4.95;;;;;;;17.25;52.02;100730.63;10369088;28;20053;-62
2022/05/07 22:43:11;;;;;;;6.80;6.20;;;;;;;17.13;52.64;100734.56;10372186;28;20565;-61
2022/05/07 22:48:13;;;;;;;5.65;5.15;;;;;;;16.87;53.48;100716.47;10370486;28;21229;-62
2022/05/07 22:53:14;;;;;;;6.13;5.60;;;;;;;17.02;53.39;100740.16;10371426;28;20114;-61
2022/05/07 22:58:18;;;;;;;6.28;5.78;;;;;;;16.93;53.89;100736.53;10369273;28;20067;-60
2022/05/07 23:03:19;;;;;;;6.15;5.65;;;;;;;17.01;54.11;100743.84;10369525;28;20151;-61
2022/05/07 23:08:21;;;;;;;7.75;7.05;;;;;;;16.81;53.99;100721.59;10372140;28;20059;-61
2022/05/07 23:13:22;;;;;;;7.63;6.82;;;;;;;16.81;55.08;100748.50;10371147;28;20073;-61
2022/05/07 23:18:24;;;;;;;7.55;6.80;;;;;;;16.63;55.15;100748.47;10369938;28;20564;-61
2022/05/07 23:23:25;;;;;;;7.55;6.70;;;;;;;16.51;55.75;100743.28;10370126;28;20583;-62
2022/05/07 23:28:26;;;;;;;7.90;7.20;;;;;;;16.60;56.03;100742.41;10371391;28;20061;-65
2022/05/07 23:33:28;;;;;;;7.00;6.40;;;;;;;16.60;56.06;100747.78;10368640;28;20060;-61
2022/05/07 23:38:29;;;;;;;7.63;6.85;;;;;;;16.55;56.06;100755.44;10370460;28;20057;-61
2022/05/07 23:43:30;;;;;;;8.15;7.38;;;;;;;16.58;56.37;100744.38;10369507;28;20053;-61
2022/05/07 23:48:35;;;;;;;8.80;7.40;;;;;;;16.67;56.80;100742.63;10367643;28;20049;-63
2022/05/07 23:53:37;;;;;;;9.00;8.18;;;;;;;16.60;56.31;100741.53;10374741;28;20049;-61
2022/05/07 23:58:39;;;;;;;7.65;6.95;;;;;;;16.60;56.76;100742.41;10377080;28;20152;-60
